createdAt,value
2022-07-27T10:48:49.254Z,71.64
2022-07-27T10:49:48.082Z,71.34
2022-07-27T10:51:51.996Z,69.51
2022-07-27T10:52:51.961Z,69.13
2022-07-27T10:54:59.968Z,69.45
2022-07-27T10:55:55.838Z,70.00
2022-07-27T10:56:55.808Z,69.74
2022-07-27T10:57:55.778Z,69.45
2022-07-27T10:58:55.751Z,69.84
2022-07-27T11:00:08.716Z,69.64
2022-07-27T11:00:55.882Z,69.84
2022-07-27T11:01:56.433Z,69.00
2022-07-27T11:02:55.631Z,68.81
2022-07-27T11:03:55.671Z,68.71
2022-07-27T11:04:55.575Z,68.43
2022-07-27T11:06:01.949Z,68.13
2022-07-27T11:07:23.429Z,68.81
2022-07-27T11:08:29.534Z,68.33
2022-07-27T11:09:27.228Z,68.04
2022-07-27T11:10:04.330Z,68.33
2022-07-27T11:10:55.402Z,68.43
2022-07-27T11:11:55.375Z,68.04
2022-07-27T11:12:55.351Z,68.17
2022-07-27T11:13:55.320Z,68.40
2022-07-27T11:14:55.292Z,67.49
2022-07-27T11:15:59.700Z,67.72
2022-07-27T11:16:57.516Z,67.52
2022-07-27T11:18:03.405Z,67.46
2022-07-27T11:18:55.217Z,67.27
2022-07-27T11:19:55.155Z,66.53
2022-07-27T11:20:55.122Z,66.53
2022-07-27T11:21:55.098Z,66.88
2022-07-27T11:23:55.033Z,68.01
2022-07-27T11:24:55.009Z,68.01
2022-07-27T11:25:54.990Z,68.07
2022-07-27T11:26:54.958Z,67.40
2022-07-27T11:27:54.929Z,67.14
2022-07-27T11:28:54.913Z,66.66
2022-07-27T11:29:54.872Z,67.08
2022-07-27T11:31:03.857Z,67.17
2022-07-27T11:32:58.763Z,65.34
2022-07-27T11:33:58.725Z,64.95
2022-07-27T11:36:02.646Z,64.92
2022-07-27T11:37:02.599Z,64.34
2022-07-27T11:39:06.526Z,65.01
2022-07-27T11:40:28.235Z,63.98
2022-07-27T11:42:12.032Z,63.92
2022-07-27T11:42:59.290Z,63.34
2022-07-27T11:45:03.216Z,63.59
2022-07-27T11:46:03.196Z,62.34
2022-07-27T11:48:07.087Z,61.43
2022-07-27T11:49:08.709Z,60.27
2022-07-27T11:51:10.959Z,59.42
2022-07-27T11:52:10.926Z,60.97
2022-07-27T11:54:14.846Z,59.39
2022-07-27T11:55:14.806Z,60.24
2022-07-27T11:57:18.750Z,61.15
2022-07-27T11:58:18.688Z,62.21
2022-07-27T12:00:22.602Z,61.66
2022-07-27T12:01:22.570Z,62.98
2022-07-27T12:03:46.142Z,62.43
2022-07-27T12:04:26.516Z,61.49
2022-07-27T12:06:30.429Z,60.36
2022-07-27T12:07:30.402Z,60.04
2022-07-27T12:09:38.711Z,60.82
2022-07-27T12:10:37.600Z,60.21
2022-07-27T12:12:38.194Z,61.01
2022-07-27T12:13:38.165Z,60.75
2022-07-27T12:15:46.391Z,59.03
2022-07-27T12:16:42.084Z,59.42
2022-07-27T12:18:45.971Z,59.81
2022-07-27T12:19:45.943Z,59.55
2022-07-27T12:21:38.795Z,60.58
2022-07-27T12:22:38.914Z,60.32
2022-07-27T12:24:42.662Z,59.36
2022-07-27T12:25:42.643Z,59.71
2022-07-27T12:27:46.558Z,60.82
2022-07-27T12:28:46.517Z,61.18
2022-07-27T12:30:50.498Z,61.01
2022-07-27T12:31:50.399Z,60.36
2022-07-27T12:34:05.368Z,60.33
2022-07-27T12:34:54.280Z,59.56
2022-07-27T12:36:58.203Z,59.10
2022-07-27T12:37:58.168Z,58.94
2022-07-27T12:40:02.085Z,57.78
2022-07-27T12:41:02.041Z,58.36
2022-07-27T12:43:05.967Z,57.65
2022-07-27T12:44:05.921Z,57.84
2022-07-27T12:46:09.931Z,57.09
2022-07-27T12:47:09.805Z,56.29
2022-07-27T12:49:14.069Z,57.69
2022-07-27T12:50:13.716Z,58.47
2022-07-27T12:52:06.557Z,58.30
2022-07-27T12:53:06.524Z,58.49
2022-07-27T12:55:15.352Z,58.69
2022-07-27T12:56:10.417Z,59.27
2022-07-27T12:58:14.358Z,58.62
2022-07-27T12:59:14.773Z,58.36
2022-07-27T13:01:18.266Z,56.89
2022-07-27T13:02:18.229Z,55.27
2022-07-27T13:04:22.096Z,54.46
2022-07-27T13:05:22.053Z,54.94
2022-07-27T13:07:25.992Z,55.69
2022-07-27T13:08:25.938Z,56.05
2022-07-27T13:10:29.866Z,56.41
2022-07-27T13:11:29.816Z,57.07
2022-07-27T13:13:33.744Z,58.30
2022-07-27T13:14:33.704Z,58.11
2022-07-27T13:16:37.650Z,58.30
2022-07-27T13:17:37.582Z,57.81
2022-07-27T13:19:41.528Z,58.44
2022-07-27T13:20:41.464Z,59.21
2022-07-27T13:22:45.416Z,59.83
2022-07-27T13:23:45.350Z,60.79
2022-07-27T13:25:49.267Z,61.02
2022-07-27T13:26:49.227Z,59.95
2022-07-27T13:28:53.148Z,59.21
2022-07-27T13:29:53.101Z,58.89
2022-07-27T13:31:52.374Z,59.21
2022-07-27T13:32:46.026Z,58.92
2022-07-27T13:34:49.964Z,59.31
2022-07-27T13:35:59.091Z,59.40
2022-07-27T13:37:53.819Z,58.82
2022-07-27T13:38:53.780Z,58.89
2022-07-27T13:40:57.728Z,58.76
2022-07-27T13:41:57.662Z,60.41
2022-07-27T13:44:01.574Z,61.05
2022-07-27T13:45:09.414Z,61.08
2022-07-27T13:47:05.543Z,60.63
2022-07-27T13:48:05.421Z,60.11
2022-07-27T13:49:05.419Z,60.60
2022-07-27T13:50:05.364Z,61.18
2022-07-27T13:51:05.361Z,60.53
2022-07-27T13:52:05.321Z,60.53
2022-07-27T13:53:05.280Z,61.11
2022-07-27T13:54:05.257Z,61.05
2022-07-27T13:55:08.093Z,60.57
2022-07-27T13:56:05.195Z,60.11
2022-07-27T13:57:05.163Z,59.53
2022-07-27T13:58:05.137Z,58.98
2022-07-27T13:59:05.117Z,59.82
2022-07-27T14:00:05.090Z,59.36
2022-07-27T14:01:07.616Z,59.46
2022-07-27T14:02:05.093Z,59.69
2022-07-27T14:03:05.007Z,59.30
2022-07-27T14:04:04.980Z,58.62
2022-07-27T14:05:06.042Z,58.01
2022-07-27T14:06:06.520Z,58.14
2022-07-27T14:07:04.900Z,58.33
2022-07-27T14:08:04.881Z,57.39
2022-07-27T14:09:04.854Z,57.17
2022-07-27T14:10:04.823Z,57.65
2022-07-27T14:11:04.789Z,57.39
2022-07-27T14:12:04.780Z,57.97
2022-07-27T14:13:08.291Z,56.71
2022-07-27T14:14:04.712Z,56.15
2022-07-27T14:15:04.684Z,55.44
2022-07-27T14:16:04.698Z,54.90
2022-07-27T14:17:04.931Z,55.28
2022-07-27T14:18:04.608Z,55.63
2022-07-27T14:19:07.136Z,53.91
2022-07-27T14:20:04.557Z,53.81
2022-07-27T14:21:04.526Z,53.35
2022-07-27T14:22:04.500Z,52.86
2022-07-27T14:23:04.470Z,51.50
2022-07-27T14:24:04.460Z,51.70
2022-07-27T14:25:04.443Z,52.42
2022-07-27T14:26:04.398Z,53.59
2022-07-27T14:27:04.373Z,53.39
2022-07-27T14:28:04.358Z,53.13
2022-07-27T14:29:04.323Z,53.08
2022-07-27T14:30:04.309Z,52.92
2022-07-27T14:31:04.323Z,51.07
2022-07-27T14:32:04.370Z,50.58
2022-07-27T14:33:04.225Z,50.60
2022-07-27T14:34:04.211Z,50.78
2022-07-27T14:35:04.171Z,51.48
2022-07-27T14:36:04.156Z,52.74
2022-07-27T14:37:04.125Z,52.23
2022-07-27T14:38:04.112Z,51.91
2022-07-27T14:39:04.080Z,52.78
2022-07-27T14:40:04.056Z,53.66
2022-07-27T14:41:04.030Z,53.88
2022-07-27T14:42:04.011Z,53.30
2022-07-27T14:43:03.984Z,53.13
2022-07-27T14:44:03.954Z,52.81
2022-07-27T14:45:03.929Z,52.81
2022-07-27T14:46:03.905Z,53.39
2022-07-27T14:47:03.947Z,53.49
2022-07-27T14:48:03.859Z,53.37
2022-07-27T14:49:06.162Z,53.69
2022-07-27T14:50:03.874Z,53.75
2022-07-27T14:51:03.774Z,53.85
2022-07-27T14:52:03.751Z,54.05
2022-07-27T14:53:03.728Z,54.63
2022-07-27T14:54:03.707Z,53.85
2022-07-27T14:55:03.675Z,52.88
2022-07-27T14:56:03.647Z,54.05
2022-07-27T14:57:03.627Z,53.47
2022-07-27T14:58:03.603Z,54.14
2022-07-27T14:59:03.570Z,53.85
2022-07-27T15:00:03.543Z,53.66
2022-07-27T15:01:03.614Z,54.14
2022-07-27T15:02:03.603Z,53.92
2022-07-27T15:03:03.469Z,54.11
2022-07-27T15:04:03.456Z,53.89
2022-07-27T15:05:03.418Z,53.92
2022-07-27T15:06:03.390Z,53.80
2022-07-27T15:07:03.368Z,53.80
2022-07-27T15:09:03.320Z,53.80
2022-07-27T15:10:03.296Z,54.48
2022-07-27T15:12:17.889Z,54.48
